^^
Station Historical Data
 
Daily Summary for July 16, 2018 Units:  English    Metric   Both
« Previous Day
Next Day »
Daily Weekly Monthly Yearly Custom
  Current: High: Low: Average:
Temperature: 77.8 °F 82.5 °F 73.5 °F 77.1 °F
Dew Point: 51.6 °F 57.0 °F 42.9 °F 47.6 °F
Humidity: 40% 50% 28% 36%
Wind Speed: 2.0mph 6.0mph 0.0mph 0.1mph
Wind Gust: 7.0mph 13.0mph - -
WindSSE - - SSE
Pressure: 29.69 in 29.73 in 29.65 in -
Precipitation: 0.00 in      
Historical Graphs
 
 
Tabular Data for July 16, 2018
Time Temperature Dew Point Pressure Wind Wind Speed Wind Gust Humidity Rainfall Rate (Hourly) solar Conditions
00:04 79.1 °F 46.7 °F 29.66 in Calm     32% 0.00 in 0.00 W/m2
00:10 78.8 °F 45.6 °F 29.66 in Calm     31% 0.00 in 0.00 W/m2
00:14 78.5 °F 45.4 °F 29.66 in Calm     31% 0.00 in 0.00 W/m2
00:19 78.4 °F 44.4 °F 29.66 in Calm     30% 0.00 in 0.00 W/m2
00:25 78.7 °F 43.8 °F 29.66 in Calm     29% 0.00 in 0.00 W/m2
00:29 78.8 °F 45.6 °F 29.66 in Calm     31% 0.00 in 0.00 W/m2
00:34 78.9 °F 45.7 °F 29.66 in Calm     31% 0.00 in 0.00 W/m2
00:39 78.7 °F 44.7 °F 29.66 in Calm     30% 0.00 in 0.00 W/m2
00:44 78.5 °F 46.2 °F 29.65 in Calm     32% 0.00 in 0.00 W/m2
00:50 78.3 °F 44.4 °F 29.65 in Calm     30% 0.00 in 0.00 W/m2
00:55 78.4 °F 43.5 °F 29.65 in Calm     29% 0.00 in 0.00 W/m2
00:59 78.6 °F 46.3 °F 29.65 in Calm     32% 0.00 in 0.00 W/m2
01:04 78.7 °F 42.9 °F 29.66 in Calm     28% 0.00 in 0.00 W/m2
01:10 79.1 °F 44.1 °F 29.66 in Calm     29% 0.00 in 0.00 W/m2
01:14 79.2 °F 44.2 °F 29.66 in Calm     29% 0.00 in 0.00 W/m2
01:19 79.3 °F 43.4 °F 29.66 in Calm     28% 0.00 in 0.00 W/m2
01:25 79.4 °F 45.3 °F 29.66 in Calm     30% 0.00 in 0.00 W/m2
01:30 79.3 °F 46.1 °F 29.66 in Calm     31% 0.00 in 0.00 W/m2
01:34 79.2 °F 45.1 °F 29.66 in Calm     30% 0.00 in 0.00 W/m2
01:39 79.0 °F 45.8 °F 29.66 in Calm     31% 0.00 in 0.00 W/m2
01:43 78.8 °F 49.6 °F 29.66 in Calm     36% 0.00 in 0.00 W/m2
01:50 77.6 °F 46.2 °F 29.66 in Calm     33% 0.00 in 0.00 W/m2
01:55 77.2 °F 45.1 °F 29.66 in Calm     32% 0.00 in 0.00 W/m2
02:00 77.0 °F 45.7 °F 29.66 in Calm     33% 0.00 in 0.00 W/m2
02:05 76.9 °F 45.6 °F 29.66 in Calm     33% 0.00 in 0.00 W/m2
02:10 76.8 °F 45.5 °F 29.66 in Calm     33% 0.00 in 0.00 W/m2
02:14 76.6 °F 46.9 °F 29.66 in Calm     35% 0.00 in 0.00 W/m2
02:20 76.3 °F 45.1 °F 29.66 in Calm     33% 0.00 in 0.00 W/m2
02:24 76.4 °F 44.4 °F 29.66 in Calm     32% 0.00 in 0.00 W/m2
02:30 76.7 °F 47.0 °F 29.65 in Calm     35% 0.00 in 0.00 W/m2
02:34 76.5 °F 48.3 °F 29.65 in Calm     37% 0.00 in 0.00 W/m2
02:39 76.1 °F 50.7 °F 29.66 in Calm     41% 0.00 in 0.00 W/m2
02:45 75.7 °F 47.6 °F 29.66 in Calm     37% 0.00 in 0.00 W/m2
02:50 75.3 °F 47.3 °F 29.66 in Calm     37% 0.00 in 0.00 W/m2
02:55 74.9 °F 46.9 °F 29.66 in Calm     37% 0.00 in 0.00 W/m2
03:00 74.5 °F 46.5 °F 29.66 in Calm     37% 0.00 in 0.00 W/m2
03:05 74.3 °F 46.4 °F 29.66 in Calm     37% 0.00 in 0.00 W/m2
03:09 74.6 °F 45.2 °F 29.66 in Calm     35% 0.00 in 0.00 W/m2
03:15 74.7 °F 45.3 °F 29.66 in Calm     35% 0.00 in 0.00 W/m2
03:20 74.8 °F 44.6 °F 29.66 in Calm     34% 0.00 in 0.00 W/m2
03:25 75.0 °F 44.8 °F 29.65 in Calm     34% 0.00 in 0.00 W/m2
03:30 75.6 °F 44.5 °F 29.65 in Calm     33% 0.00 in 0.00 W/m2
03:34 76.4 °F 44.4 °F 29.65 in Calm     32% 0.00 in 0.00 W/m2
03:39 76.9 °F 44.8 °F 29.65 in Calm     32% 0.00 in 0.00 W/m2
03:44 77.1 °F 45.8 °F 29.65 in Calm     33% 0.00 in 0.00 W/m2
03:49 77.2 °F 44.2 °F 29.65 in Calm     31% 0.00 in 0.00 W/m2
03:54 77.5 °F 44.5 °F 29.65 in Calm     31% 0.00 in 0.00 W/m2
04:00 77.7 °F 44.7 °F 29.65 in Calm     31% 0.00 in 0.00 W/m2
04:05 77.6 °F 44.6 °F 29.66 in Calm     31% 0.00 in 0.00 W/m2
04:10 77.7 °F 43.8 °F 29.66 in Calm     30% 0.00 in 0.00 W/m2
04:15 77.8 °F 43.9 °F 29.66 in Calm     30% 0.00 in 0.00 W/m2
04:20 77.9 °F 44.0 °F 29.66 in Calm     30% 0.00 in 0.00 W/m2
04:24 78.0 °F 44.1 °F 29.66 in Calm     30% 0.00 in 0.00 W/m2
04:29 78.0 °F 44.1 °F 29.66 in Calm     30% 0.00 in 0.00 W/m2
04:35 78.0 °F 45.0 °F 29.66 in Calm     31% 0.00 in 0.00 W/m2
04:39 77.8 °F 44.8 °F 29.66 in Calm     31% 0.00 in 0.00 W/m2
04:44 77.5 °F 45.4 °F 29.65 in Calm     32% 0.00 in 0.00 W/m2
04:50 77.1 °F 45.0 °F 29.65 in Calm     32% 0.00 in 0.00 W/m2
04:55 76.8 °F 45.5 °F 29.65 in Calm     33% 0.00 in 0.00 W/m2
05:00 76.4 °F 46.8 °F 29.65 in Calm     35% 0.00 in 0.00 W/m2
05:05 76.2 °F 46.6 °F 29.65 in Calm     35% 0.00 in 0.00 W/m2
05:10 76.1 °F 45.7 °F 29.65 in Calm     34% 0.00 in 0.00 W/m2
05:15 75.8 °F 45.5 °F 29.66 in Calm     34% 0.00 in 0.00 W/m2
05:20 75.7 °F 46.1 °F 29.66 in Calm     35% 0.00 in 0.00 W/m2
05:24 75.5 °F 46.7 °F 29.65 in Calm     36% 0.00 in 0.00 W/m2
05:30 75.5 °F 45.2 °F 29.65 in Calm     34% 0.00 in 0.00 W/m2
05:34 75.8 °F 44.7 °F 29.65 in Calm     33% 0.00 in 0.00 W/m2
05:40 76.1 °F 44.9 °F 29.65 in Calm     33% 0.00 in 0.00 W/m2
05:45 76.4 °F 44.4 °F 29.65 in Calm     32% 0.00 in 0.00 W/m2
05:50 76.8 °F 43.9 °F 29.65 in Calm     31% 0.00 in 0.00 W/m2
05:54 77.3 °F 44.3 °F 29.65 in Calm     31% 0.00 in 0.00 W/m2
05:59 77.6 °F 43.7 °F 29.65 in Calm     30% 0.00 in 0.00 W/m2
06:05 77.7 °F 44.7 °F 29.65 in Calm     31% 0.00 in 0.00 W/m2
06:10 77.8 °F 45.6 °F 29.66 in Calm     32% 0.00 in 0.00 W/m2
06:14 77.8 °F 44.8 °F 29.66 in Calm     31% 0.00 in 0.00 W/m2
06:20 77.8 °F 45.6 °F 29.67 in Calm     32% 0.00 in 5.00 W/m2
06:25 77.5 °F 47.0 °F 29.67 in Calm     34% 0.00 in 5.00 W/m2
06:29 77.0 °F 48.8 °F 29.67 in Calm     37% 0.00 in 9.00 W/m2
06:34 76.4 °F 47.5 °F 29.67 in Calm     36% 0.00 in 12.00 W/m2
06:40 76.1 °F 48.0 °F 29.67 in Calm     37% 0.00 in 16.00 W/m2
06:44 76.0 °F 47.1 °F 29.67 in Calm     36% 0.00 in 25.00 W/m2
06:49 75.8 °F 49.1 °F 29.67 in Calm     39% 0.00 in 35.00 W/m2
06:55 75.7 °F 49.7 °F 29.67 in Calm     40% 0.00 in 51.00 W/m2
06:59 75.5 °F 50.8 °F 29.68 in Calm     42% 0.00 in 62.00 W/m2
07:05 75.3 °F 49.3 °F 29.68 in Calm     40% 0.00 in 72.00 W/m2
07:10 75.1 °F 49.8 °F 29.68 in Calm     41% 0.00 in 83.00 W/m2
07:15 75.1 °F 50.5 °F 29.68 in Calm     42% 0.00 in 63.00 W/m2
07:20 75.1 °F 52.3 °F 29.69 in Calm     45% 0.00 in 91.00 W/m2
07:24 75.1 °F 52.3 °F 29.69 in Calm     45% 0.00 in 44.00 W/m2
07:29 75.1 °F 52.3 °F 29.69 in Calm     45% 0.00 in 53.00 W/m2
07:35 75.0 °F 52.2 °F 29.69 in Calm     45% 0.00 in 67.00 W/m2
07:40 74.9 °F 52.1 °F 29.70 in Calm     45% 0.00 in 86.00 W/m2
07:45 74.8 °F 52.7 °F 29.70 in Calm     46% 0.00 in 100.00 W/m2
07:50 74.1 °F 52.6 °F 29.70 in Calm     47% 0.00 in 105.00 W/m2
07:54 73.6 °F 52.1 °F 29.70 in Calm     47% 0.00 in 107.00 W/m2
08:00 73.5 °F 52.6 °F 29.71 in Calm     48% 0.00 in 97.00 W/m2
08:05 73.5 °F 53.7 °F 29.71 in Calm     50% 0.00 in 230.00 W/m2
08:10 73.8 °F 52.3 °F 29.71 in Calm     47% 0.00 in 183.00 W/m2
08:14 74.2 °F 51.5 °F 29.71 in Calm     45% 0.00 in 306.00 W/m2
08:20 75.1 °F 51.7 °F 29.71 in Calm     44% 0.00 in 352.00 W/m2
08:25 76.1 °F 52.6 °F 29.71 in Calm     44% 0.00 in 253.00 W/m2
08:29 76.9 °F 50.8 °F 29.71 in Calm     40% 0.00 in 345.00 W/m2
08:35 77.9 °F 51.0 °F 29.71 in Calm     39% 0.00 in 417.00 W/m2
08:40 79.1 °F 48.4 °F 29.72 in Calm     34% 0.00 in 378.00 W/m2
08:45 79.9 °F 50.6 °F 29.72 in Calm     36% 0.00 in 482.00 W/m2
08:50 81.3 °F 50.3 °F 29.72 in Calm     34% 0.00 in 325.00 W/m2
08:54 82.0 °F 49.3 °F 29.72 in Calm     32% 0.00 in 223.00 W/m2
09:00 82.4 °F 57.0 °F 29.72 in Calm     42% 0.00 in 206.00 W/m2
09:05 82.5 °F 56.5 °F 29.72 in Calm     41% 0.00 in 149.00 W/m2
09:09 81.9 °F 55.9 °F 29.72 in Calm     41% 0.00 in 125.00 W/m2
09:14 80.9 °F 55.7 °F 29.72 in Calm     42% 0.00 in 121.00 W/m2
09:20 80.3 °F 54.5 °F 29.73 in Calm     41% 0.00 in 113.00 W/m2
09:25 79.2 °F 54.8 °F 29.73 in Calm     43% 0.00 in 116.00 W/m2
09:30 78.2 °F 54.5 °F 29.73 in Calm     44% 0.00 in 121.00 W/m2
09:34 77.6 °F 52.7 °F 29.73 in Calm     42% 0.00 in 114.00 W/m2
09:40 77.0 °F 52.2 °F 29.73 in Calm     42% 0.00 in 111.00 W/m2
09:45 76.6 °F 51.8 °F 29.73 in Calm   6.0 mph 42% 0.00 in 98.00 W/m2
09:50 76.5 °F 50.4 °F 29.72 in South 2.0 mph 4.0 mph 40% 0.00 in 63.00 W/m2
09:55 76.4 °F 49.6 °F 29.72 in South 2.0 mph 3.0 mph 39% 0.00 in 42.00 W/m2
10:00 76.6 °F 49.1 °F 29.71 in Calm   5.0 mph 38% 0.00 in 46.00 W/m2
10:05 77.1 °F 48.9 °F 29.71 in SSE 6.0 mph 13.0 mph 37% 0.00 in 56.00 W/m2
10:10 77.8 °F 51.6 °F 29.69 in SSE 2.0 mph 7.0 mph 40% 0.00 in 72.00 W/m2
Chelsea Cove, Bountiful, UT
Compliments of Weather Underground - 1.25 mb